createdAt,value
2017-11-27T00:00:13.629Z,89.1
2017-11-27T00:01:15.034Z,89.0
2017-11-27T00:02:16.420Z,88.9
2017-11-27T00:03:17.846Z,88.9
2017-11-27T00:04:19.253Z,89.3
2017-11-27T00:05:20.644Z,89.0
2017-11-27T00:06:22.033Z,89.5
2017-11-27T00:07:23.440Z,89.0
2017-11-27T00:08:24.825Z,89.2
2017-11-27T00:09:26.232Z,89.0
2017-11-27T00:10:27.644Z,89.1
2017-11-27T00:11:29.024Z,89.1
2017-11-27T00:12:30.426Z,89.1
2017-11-27T00:13:31.830Z,89.0
2017-11-27T00:14:33.216Z,89.2
2017-11-27T00:15:34.612Z,89.2
2017-11-27T00:16:36.021Z,89.2
2017-11-27T00:17:37.426Z,89.3
2017-11-27T00:18:38.821Z,89.2
2017-11-27T00:19:40.255Z,88.8
2017-11-27T00:20:41.614Z,89.1
2017-11-27T00:21:43.030Z,89.1
2017-11-27T00:22:44.421Z,89.0
2017-11-27T00:23:45.827Z,89.2
2017-11-27T00:24:47.228Z,88.8
2017-11-27T00:25:48.646Z,88.9
2017-11-27T00:26:50.036Z,88.8
2017-11-27T00:27:51.428Z,89.1
2017-11-27T00:28:52.826Z,88.9
2017-11-27T00:29:54.215Z,88.9
2017-11-27T00:30:55.624Z,89.4
2017-11-27T00:31:57.019Z,88.9
2017-11-27T00:32:58.428Z,88.9
2017-11-27T00:33:59.811Z,88.9
2017-11-27T00:35:01.221Z,89.2
2017-11-27T00:36:02.622Z,89.3
2017-11-27T00:37:04.024Z,88.9
2017-11-27T00:38:05.427Z,89.3
2017-11-27T00:39:06.822Z,89.2
2017-11-27T00:40:08.218Z,89.4
2017-11-27T00:41:09.623Z,89.5
2017-11-27T00:42:11.017Z,89.0
2017-11-27T00:43:12.421Z,88.9
2017-11-27T00:44:13.818Z,89.4
2017-11-27T00:45:15.214Z,89.3
2017-11-27T00:46:16.618Z,89.4
2017-11-27T00:47:18.012Z,88.9
2017-11-27T00:48:19.411Z,89.3
2017-11-27T00:49:20.834Z,89.0
2017-11-27T00:50:22.229Z,89.0
2017-11-27T00:51:23.628Z,88.9
2017-11-27T00:52:25.023Z,89.4
2017-11-27T00:53:26.426Z,89.3
2017-11-27T00:54:27.852Z,89.0
2017-11-27T00:55:29.246Z,89.1
2017-11-27T00:56:30.636Z,89.1
2017-11-27T00:57:32.028Z,89.1
2017-11-27T00:58:33.443Z,89.1
2017-11-27T00:59:34.841Z,89.2
2017-11-27T01:00:36.238Z,89.1
2017-11-27T01:01:37.637Z,89.2
2017-11-27T01:02:39.048Z,89.5
2017-11-27T01:03:40.440Z,89.2
2017-11-27T01:04:41.837Z,89.0
2017-11-27T01:05:43.231Z,88.8
2017-11-27T01:06:44.626Z,88.8
2017-11-27T01:07:46.021Z,88.9
2017-11-27T01:08:47.409Z,89.1
2017-11-27T01:09:48.810Z,89.3
2017-11-27T01:10:50.193Z,88.6
2017-11-27T01:11:51.599Z,89.3
2017-11-27T01:12:52.990Z,89.1
2017-11-27T01:13:54.388Z,89.2
2017-11-27T01:14:55.783Z,89.2
2017-11-27T01:15:57.182Z,89.1
2017-11-27T01:16:58.572Z,88.6
2017-11-27T01:17:59.963Z,88.6
2017-11-27T01:19:01.357Z,88.4
2017-11-27T01:20:02.770Z,88.4
2017-11-27T01:21:04.163Z,88.5
2017-11-27T01:22:05.558Z,88.7
2017-11-27T01:23:06.949Z,88.5
2017-11-27T01:24:08.384Z,88.5
2017-11-27T01:25:09.784Z,88.7
2017-11-27T01:26:11.164Z,88.4
2017-11-27T01:27:12.563Z,88.5
2017-11-27T01:28:13.957Z,88.5
2017-11-27T01:29:15.380Z,88.6
2017-11-27T01:30:16.782Z,88.5
2017-11-27T01:31:18.175Z,88.5
2017-11-27T01:32:19.577Z,88.5
2017-11-27T01:33:20.980Z,88.7
2017-11-27T01:34:22.375Z,88.6
2017-11-27T01:35:23.781Z,88.5
2017-11-27T01:36:25.188Z,88.7
2017-11-27T01:37:26.587Z,88.7
2017-11-27T01:38:27.991Z,88.8
2017-11-27T01:39:29.396Z,88.7
2017-11-27T01:40:30.768Z,88.7
2017-11-27T01:41:32.169Z,88.6
2017-11-27T01:42:33.560Z,88.5
2017-11-27T01:43:34.951Z,88.7
2017-11-27T01:44:36.353Z,88.8
2017-11-27T01:45:37.743Z,88.8
2017-11-27T01:46:39.141Z,88.5
2017-11-27T01:47:40.546Z,88.5
2017-11-27T01:48:41.946Z,88.5
2017-11-27T01:49:43.346Z,88.7
2017-11-27T01:50:44.756Z,88.5
2017-11-27T01:51:46.161Z,88.7
2017-11-27T01:52:47.556Z,88.6
2017-11-27T01:53:48.956Z,88.6
2017-11-27T01:54:50.354Z,88.8
2017-11-27T01:55:51.747Z,88.7
2017-11-27T01:56:53.155Z,88.7
2017-11-27T01:57:54.544Z,88.5
2017-11-27T01:58:55.939Z,88.3
2017-11-27T01:59:57.338Z,88.4
2017-11-27T02:00:58.738Z,88.7
2017-11-27T02:02:00.136Z,89.2
2017-11-27T02:03:01.545Z,89.3
2017-11-27T02:04:02.937Z,89.1
2017-11-27T02:05:04.333Z,89.1
2017-11-27T02:06:05.730Z,89.2
2017-11-27T02:07:07.124Z,89.3
2017-11-27T02:08:08.522Z,89.1
2017-11-27T02:09:09.956Z,89.1
2017-11-27T02:10:11.350Z,89.3
2017-11-27T02:11:12.756Z,89.4
2017-11-27T02:12:14.151Z,89.4
2017-11-27T02:13:15.556Z,89.2
2017-11-27T02:14:16.947Z,89.4
2017-11-27T02:15:18.346Z,89.3
2017-11-27T02:16:19.744Z,88.9
2017-11-27T02:17:21.147Z,89.0
2017-11-27T02:18:22.535Z,89.3
2017-11-27T02:19:23.938Z,89.1
2017-11-27T02:20:25.328Z,88.9
2017-11-27T02:21:26.730Z,89.3
2017-11-27T02:22:28.121Z,89.1
2017-11-27T02:23:29.516Z,89.3
2017-11-27T02:24:30.924Z,89.2
2017-11-27T02:25:32.358Z,89.4
2017-11-27T02:26:33.715Z,89.9
2017-11-27T02:27:35.110Z,89.5
2017-11-27T02:28:36.499Z,89.9
2017-11-27T02:29:37.902Z,90.0
2017-11-27T02:30:39.292Z,90.1
2017-11-27T02:31:40.690Z,90.0
2017-11-27T02:32:42.094Z,90.0
2017-11-27T02:33:43.503Z,90.3
2017-11-27T02:34:44.908Z,90.0
2017-11-27T02:35:46.293Z,89.9
2017-11-27T02:36:47.694Z,89.8
2017-11-27T02:37:49.088Z,89.9
2017-11-27T02:38:50.496Z,89.9
2017-11-27T02:39:51.891Z,90.2
2017-11-27T02:40:53.287Z,90.1
2017-11-27T02:41:54.708Z,90.0
2017-11-27T02:42:56.111Z,89.8
2017-11-27T02:43:57.523Z,89.5
2017-11-27T02:44:58.927Z,90.0
2017-11-27T02:46:00.325Z,89.6
2017-11-27T02:47:01.715Z,89.6
2017-11-27T02:48:03.128Z,89.9
2017-11-27T02:49:04.519Z,89.8
2017-11-27T02:50:05.909Z,89.8
2017-11-27T02:51:07.308Z,89.6
2017-11-27T02:52:08.701Z,89.5
2017-11-27T02:53:10.097Z,89.4
2017-11-27T02:54:11.509Z,89.7
2017-11-27T02:55:12.898Z,89.2
2017-11-27T02:56:14.295Z,89.2
2017-11-27T02:57:15.699Z,88.9
2017-11-27T02:58:17.103Z,89.2
2017-11-27T02:59:18.508Z,89.3
2017-11-27T03:00:19.914Z,89.1
2017-11-27T03:01:21.306Z,88.9
2017-11-27T03:02:22.717Z,89.3
2017-11-27T03:03:24.122Z,89.4
2017-11-27T03:04:25.511Z,89.3
2017-11-27T03:05:26.920Z,88.9
2017-11-27T03:06:28.319Z,89.1
2017-11-27T03:07:29.721Z,89.1
2017-11-27T03:08:31.122Z,89.3
2017-11-27T03:09:32.515Z,89.1
2017-11-27T03:10:33.905Z,89.3
2017-11-27T03:11:35.315Z,89.1
2017-11-27T03:12:36.715Z,89.1
2017-11-27T03:13:38.108Z,89.2
2017-11-27T03:14:39.510Z,88.9
2017-11-27T03:15:40.903Z,89.1
2017-11-27T03:16:42.296Z,88.9
2017-11-27T03:17:43.711Z,89.0
2017-11-27T03:18:45.113Z,89.2
2017-11-27T03:19:46.519Z,89.1
2017-11-27T03:20:47.922Z,89.2
2017-11-27T03:21:49.325Z,89.2
2017-11-27T03:22:50.721Z,89.0
2017-11-27T03:23:52.162Z,89.4
2017-11-27T03:24:53.554Z,89.4
2017-11-27T03:25:54.959Z,89.2
2017-11-27T03:26:56.363Z,89.2
2017-11-27T03:27:57.774Z,88.9
2017-11-27T03:28:59.163Z,89.3
2017-11-27T03:30:00.604Z,89.1
2017-11-27T03:31:01.989Z,89.6
2017-11-27T03:32:03.389Z,89.2
2017-11-27T03:33:04.777Z,88.8
2017-11-27T03:34:06.199Z,88.9
2017-11-27T03:35:07.598Z,88.9
2017-11-27T03:36:09.003Z,89.1
2017-11-27T03:37:10.399Z,89.1
2017-11-27T03:38:11.803Z,89.2
2017-11-27T03:39:13.196Z,88.9
2017-11-27T03:40:14.596Z,89.1
2017-11-27T03:41:15.987Z,89.3
2017-11-27T03:42:17.413Z,89.3
2017-11-27T03:43:18.785Z,89.2
2017-11-27T03:44:20.179Z,88.2
2017-11-27T03:45:21.576Z,89.2
2017-11-27T03:46:22.969Z,89.1
2017-11-27T03:47:24.368Z,89.0
2017-11-27T03:48:25.766Z,89.1
2017-11-27T03:49:27.166Z,89.3
2017-11-27T03:50:28.559Z,88.5
2017-11-27T03:51:29.967Z,88.5
2017-11-27T03:52:31.360Z,88.6
2017-11-27T03:53:32.754Z,88.5
2017-11-27T03:54:34.147Z,88.6
2017-11-27T03:55:35.553Z,88.6
2017-11-27T03:56:37.757Z,88.9
2017-11-27T03:57:39.150Z,88.6
2017-11-27T03:58:40.548Z,88.7
2017-11-27T03:59:41.951Z,88.6
2017-11-27T04:00:43.361Z,88.8
2017-11-27T04:01:44.750Z,88.9
2017-11-27T04:02:46.137Z,88.7
2017-11-27T04:03:47.557Z,88.7
2017-11-27T04:04:48.961Z,88.7
2017-11-27T04:05:50.354Z,88.7
2017-11-27T04:06:51.770Z,88.6
2017-11-27T04:07:53.199Z,88.8
2017-11-27T04:08:54.602Z,88.6
2017-11-27T04:09:55.994Z,88.2
2017-11-27T04:10:57.388Z,88.5
2017-11-27T04:11:58.800Z,88.5
2017-11-27T04:13:00.193Z,88.2
2017-11-27T04:14:01.586Z,88.3
2017-11-27T04:15:02.998Z,88.2
2017-11-27T04:16:04.371Z,88.1
2017-11-27T04:17:05.776Z,88.2
2017-11-27T04:18:07.181Z,88.2
2017-11-27T04:19:08.581Z,88.2
2017-11-27T04:20:09.977Z,88.3
2017-11-27T04:21:11.383Z,88.2
2017-11-27T04:22:12.775Z,88.3
2017-11-27T04:23:14.168Z,88.4
2017-11-27T04:24:15.583Z,88.2
2017-11-27T04:25:16.976Z,88.2
2017-11-27T04:26:18.377Z,88.2
2017-11-27T04:27:19.773Z,88.2
2017-11-27T04:28:21.167Z,88.2
2017-11-27T04:29:22.558Z,88.3
2017-11-27T04:30:23.962Z,88.9
2017-11-27T04:31:25.359Z,88.2
2017-11-27T04:32:26.754Z,88.6
2017-11-27T04:33:28.146Z,88.4
2017-11-27T04:34:29.551Z,88.4
2017-11-27T04:35:30.946Z,88.6
2017-11-27T04:36:32.373Z,87.9
2017-11-27T04:37:33.745Z,87.8
2017-11-27T04:38:35.142Z,88.6
2017-11-27T04:39:36.535Z,88.4
2017-11-27T04:40:37.937Z,88.1
2017-11-27T04:41:39.330Z,88.3
2017-11-27T04:42:40.735Z,88.3
2017-11-27T04:43:42.132Z,88.0
2017-11-27T04:44:43.540Z,88.0
2017-11-27T04:45:44.927Z,88.2
2017-11-27T04:46:46.326Z,88.2
2017-11-27T04:47:47.711Z,88.0
2017-11-27T04:48:49.112Z,87.8
2017-11-27T04:49:50.508Z,88.0
2017-11-27T04:50:51.916Z,87.8
2017-11-27T04:51:53.308Z,88.1
2017-11-27T04:52:54.703Z,87.8
2017-11-27T04:53:56.094Z,88.0
2017-11-27T04:54:57.487Z,88.1
2017-11-27T04:55:58.885Z,88.1
2017-11-27T04:57:00.286Z,87.9
2017-11-27T04:58:01.679Z,88.4
2017-11-27T04:59:03.073Z,88.2
2017-11-27T05:00:04.468Z,88.6
2017-11-27T05:01:05.858Z,88.3
2017-11-27T05:02:07.255Z,87.9
2017-11-27T05:03:08.651Z,88.3
2017-11-27T05:04:10.046Z,87.8
2017-11-27T05:05:11.449Z,88.0
2017-11-27T05:06:12.851Z,87.8
2017-11-27T05:07:14.242Z,87.9
2017-11-27T05:08:15.640Z,87.6
2017-11-27T05:09:17.044Z,87.9
2017-11-27T05:10:18.436Z,87.8
2017-11-27T05:11:19.836Z,87.1
2017-11-27T05:12:21.230Z,87.2
2017-11-27T05:13:22.626Z,87.5
2017-11-27T05:14:24.019Z,87.3
2017-11-27T05:15:25.421Z,87.6
2017-11-27T05:16:26.820Z,87.4
2017-11-27T05:17:28.215Z,87.4
2017-11-27T05:18:29.613Z,87.4
2017-11-27T05:19:31.004Z,87.7
2017-11-27T05:20:32.403Z,87.5
2017-11-27T05:21:33.806Z,87.4
2017-11-27T05:22:35.199Z,87.7
2017-11-27T05:23:36.605Z,87.4
2017-11-27T05:24:37.996Z,87.1
2017-11-27T05:25:39.404Z,86.9
2017-11-27T05:26:40.799Z,87.0
2017-11-27T05:27:42.194Z,86.4
2017-11-27T05:28:43.593Z,86.9
2017-11-27T05:29:44.985Z,86.8
2017-11-27T05:30:46.384Z,86.8
2017-11-27T05:31:47.781Z,86.7
2017-11-27T05:32:49.178Z,87.0
2017-11-27T05:33:50.572Z,86.8
2017-11-27T05:34:52.021Z,87.1
2017-11-27T05:35:53.406Z,86.7
2017-11-27T05:36:54.813Z,86.9
2017-11-27T05:37:56.273Z,86.8
2017-11-27T05:38:57.626Z,86.8
2017-11-27T05:39:59.020Z,86.9
2017-11-27T05:41:00.412Z,87.0
2017-11-27T05:42:01.807Z,86.6
2017-11-27T05:43:03.201Z,86.8
2017-11-27T05:44:04.595Z,87.0
2017-11-27T05:45:05.993Z,86.8
2017-11-27T05:46:07.405Z,86.7
2017-11-27T05:47:08.800Z,86.3
2017-11-27T05:48:10.203Z,86.3
2017-11-27T05:49:11.606Z,86.3
2017-11-27T05:50:12.999Z,86.2
2017-11-27T05:51:14.391Z,86.2
2017-11-27T05:52:15.788Z,86.4
2017-11-27T05:53:17.179Z,86.4
2017-11-27T05:54:18.572Z,86.4
2017-11-27T05:55:19.967Z,86.4
2017-11-27T05:56:21.372Z,86.3
2017-11-27T05:57:22.782Z,86.6
2017-11-27T05:58:24.185Z,86.4
2017-11-27T05:59:25.578Z,85.8
2017-11-27T06:00:26.972Z,86.4
2017-11-27T06:01:28.376Z,86.4
2017-11-27T06:02:29.776Z,86.2
2017-11-27T06:03:31.174Z,85.9
2017-11-27T06:04:32.568Z,86.2
2017-11-27T06:05:33.967Z,86.2
2017-11-27T06:06:35.360Z,86.3
2017-11-27T06:07:36.755Z,86.1
2017-11-27T06:08:38.160Z,86.2
2017-11-27T06:09:39.536Z,86.2
2017-11-27T06:10:40.928Z,86.1
2017-11-27T06:11:42.333Z,86.2
2017-11-27T06:12:43.721Z,85.8
2017-11-27T06:13:45.174Z,85.8
2017-11-27T06:14:46.571Z,85.6
2017-11-27T06:15:47.978Z,86.0
2017-11-27T06:16:49.388Z,86.0
2017-11-27T06:17:50.783Z,85.4
2017-11-27T06:18:52.180Z,85.8
2017-11-27T06:19:53.575Z,85.9
2017-11-27T06:20:54.966Z,86.0
2017-11-27T06:21:56.362Z,85.6
2017-11-27T06:22:57.768Z,85.9
2017-11-27T06:23:59.161Z,84.9
2017-11-27T06:25:00.568Z,85.1
2017-11-27T06:26:01.961Z,85.2
2017-11-27T06:27:03.358Z,85.0
2017-11-27T06:28:04.784Z,85.3
2017-11-27T06:29:06.161Z,85.3
2017-11-27T06:30:07.558Z,86.0
2017-11-27T06:31:08.951Z,85.7
2017-11-27T06:32:10.346Z,85.9
2017-11-27T06:33:11.740Z,85.4
2017-11-27T06:34:13.134Z,86.4
2017-11-27T06:35:14.534Z,86.6
2017-11-27T06:36:15.940Z,86.6
2017-11-27T06:37:17.323Z,86.7
2017-11-27T06:38:18.720Z,86.8
2017-11-27T06:39:20.109Z,87.1
2017-11-27T06:40:21.503Z,87.2
2017-11-27T06:41:22.897Z,87.1
2017-11-27T06:42:24.307Z,87.1
2017-11-27T06:43:25.703Z,87.2
2017-11-27T06:44:27.108Z,87.4
2017-11-27T06:45:28.516Z,87.4
2017-11-27T06:46:29.924Z,87.3
2017-11-27T06:47:31.301Z,87.6
2017-11-27T06:48:32.692Z,87.7
2017-11-27T06:49:34.088Z,88.1
2017-11-27T06:50:35.483Z,88.6
2017-11-27T06:51:36.879Z,88.3
2017-11-27T06:52:38.277Z,87.7
2017-11-27T06:53:39.671Z,88.0
2017-11-27T06:54:41.070Z,87.8
2017-11-27T06:55:42.462Z,87.6
2017-11-27T06:56:43.861Z,88.1
2017-11-27T06:57:45.250Z,88.0
2017-11-27T06:58:46.644Z,87.9
2017-11-27T06:59:48.035Z,87.8
2017-11-27T07:00:49.429Z,88.8
2017-11-27T07:01:50.832Z,88.0
2017-11-27T07:02:52.236Z,88.5
2017-11-27T07:03:53.632Z,88.8
2017-11-27T07:04:55.023Z,88.8
2017-11-27T07:05:56.421Z,88.6
2017-11-27T07:06:57.810Z,89.3
2017-11-27T07:07:59.202Z,88.9
2017-11-27T07:09:00.593Z,89.2
2017-11-27T07:10:01.993Z,89.3
2017-11-27T07:11:03.385Z,89.6
2017-11-27T07:12:04.783Z,90.1
2017-11-27T07:13:06.178Z,90.4
2017-11-27T07:14:07.569Z,90.5
2017-11-27T07:15:08.959Z,90.3
2017-11-27T07:16:10.357Z,90.4
2017-11-27T07:17:11.759Z,90.5
2017-11-27T07:18:13.158Z,90.8
2017-11-27T07:19:14.566Z,90.7
2017-11-27T07:20:15.959Z,91.2
2017-11-27T07:21:17.354Z,91.2
2017-11-27T07:22:18.752Z,91.2
2017-11-27T07:23:20.161Z,91.1
2017-11-27T07:24:21.638Z,91.9
2017-11-27T07:25:23.030Z,91.7
2017-11-27T07:26:24.428Z,91.5
2017-11-27T07:27:25.825Z,91.7
2017-11-27T07:28:27.224Z,91.8
2017-11-27T07:29:28.621Z,91.8
2017-11-27T07:30:30.024Z,92.1
2017-11-27T07:31:31.420Z,92.5
2017-11-27T07:32:32.825Z,92.5
2017-11-27T07:33:34.220Z,92.5
2017-11-27T07:34:35.622Z,91.8
2017-11-27T07:35:37.014Z,92.4
2017-11-27T07:36:38.410Z,92.6
2017-11-27T07:37:39.814Z,92.2
2017-11-27T07:38:41.221Z,92.3
2017-11-27T07:39:42.625Z,92.0
2017-11-27T07:40:44.030Z,92.3
2017-11-27T07:41:45.846Z,92.1
2017-11-27T07:42:47.223Z,91.9
2017-11-27T07:43:48.613Z,92.4
2017-11-27T07:44:50.030Z,92.4
2017-11-27T07:45:51.432Z,92.3
2017-11-27T07:46:52.853Z,92.5
2017-11-27T07:47:54.248Z,92.5
2017-11-27T07:48:55.648Z,92.4
2017-11-27T07:49:57.078Z,92.7
2017-11-27T07:50:58.474Z,92.7
2017-11-27T07:52:00.060Z,92.7
2017-11-27T07:53:01.499Z,92.9
2017-11-27T07:54:02.894Z,93.0
2017-11-27T07:55:04.299Z,92.8
2017-11-27T07:56:05.698Z,92.9
2017-11-27T07:57:07.097Z,92.7
2017-11-27T07:58:08.508Z,92.8
2017-11-27T07:59:09.909Z,92.7
2017-11-27T08:00:11.299Z,92.9
2017-11-27T08:01:12.711Z,92.9
2017-11-27T08:02:14.199Z,92.7
2017-11-27T08:03:15.607Z,93.1
2017-11-27T08:04:16.999Z,92.8
2017-11-27T08:05:18.397Z,93.7
2017-11-27T08:06:19.818Z,93.4
2017-11-27T08:07:21.210Z,93.5
2017-11-27T08:08:22.608Z,93.3
2017-11-27T08:09:24.004Z,93.5
2017-11-27T08:10:25.399Z,93.3
2017-11-27T08:11:27.058Z,93.6
2017-11-27T08:12:29.227Z,93.0
2017-11-27T08:13:30.592Z,93.8
2017-11-27T08:14:32.026Z,93.8
2017-11-27T08:15:33.429Z,93.6
2017-11-27T08:16:34.836Z,93.7
2017-11-27T08:17:36.240Z,93.4
2017-11-27T08:18:37.976Z,93.5
2017-11-27T08:19:39.399Z,93.4
2017-11-27T08:20:40.903Z,93.3
2017-11-27T08:21:42.649Z,93.1
2017-11-27T08:22:44.401Z,93.4
2017-11-27T08:23:46.129Z,93.8
2017-11-27T08:24:47.660Z,93.8
2017-11-27T08:25:49.211Z,93.8
2017-11-27T08:26:50.763Z,93.6
2017-11-27T08:27:52.271Z,94.2
2017-11-27T08:28:53.839Z,94.1
2017-11-27T08:29:55.354Z,94.0
2017-11-27T08:30:56.851Z,94.0
2017-11-27T08:31:58.409Z,94.0
2017-11-27T08:32:59.983Z,93.9
2017-11-27T08:34:01.589Z,94.6
2017-11-27T08:35:03.149Z,94.7
2017-11-27T08:36:04.655Z,94.5
2017-11-27T08:37:06.198Z,94.6
2017-11-27T08:38:07.752Z,94.5
2017-11-27T08:39:09.222Z,94.9
2017-11-27T08:40:10.704Z,94.8
2017-11-27T08:41:12.198Z,94.8
2017-11-27T08:42:13.672Z,94.9
2017-11-27T08:43:15.149Z,95.0
2017-11-27T08:44:16.667Z,95.1
2017-11-27T08:45:18.174Z,94.9
2017-11-27T08:46:19.656Z,94.8
2017-11-27T08:47:21.149Z,94.9
2017-11-27T08:48:22.835Z,94.7
2017-11-27T08:49:24.327Z,94.8
2017-11-27T08:50:25.808Z,95.5
2017-11-27T08:51:27.320Z,95.3
2017-11-27T08:52:28.802Z,95.1
2017-11-27T08:53:30.276Z,95.3
2017-11-27T08:54:31.741Z,95.0
2017-11-27T08:55:33.192Z,95.2
2017-11-27T08:56:34.698Z,95.7
2017-11-27T08:57:36.181Z,95.7
2017-11-27T08:58:37.647Z,95.4
2017-11-27T08:59:39.141Z,95.8
2017-11-27T09:00:40.662Z,95.7
2017-11-27T09:01:42.587Z,95.9
2017-11-27T09:02:44.053Z,96.0
2017-11-27T09:03:45.511Z,95.6
2017-11-27T09:04:46.974Z,96.0
2017-11-27T09:05:48.481Z,95.9
2017-11-27T09:06:49.926Z,95.7
2017-11-27T09:07:51.407Z,95.7
2017-11-27T09:08:52.825Z,95.7
2017-11-27T09:09:54.237Z,95.7
2017-11-27T09:10:55.681Z,96.0
2017-11-27T09:11:57.122Z,95.9
2017-11-27T09:12:58.556Z,95.8
2017-11-27T09:14:00.150Z,96.0
2017-11-27T09:15:01.730Z,96.7
2017-11-27T09:16:03.194Z,96.7
2017-11-27T09:17:04.662Z,96.4
2017-11-27T09:18:06.125Z,96.2
2017-11-27T09:19:07.603Z,96.3
2017-11-27T09:20:09.067Z,96.5
2017-11-27T09:21:10.548Z,96.2
2017-11-27T09:22:11.993Z,96.2
2017-11-27T09:23:13.580Z,96.3
2017-11-27T09:24:15.041Z,96.4
2017-11-27T09:25:16.534Z,96.4
2017-11-27T09:26:17.991Z,96.3
2017-11-27T09:27:19.520Z,96.2
2017-11-27T09:28:21.006Z,96.5
2017-11-27T09:29:22.455Z,96.5
2017-11-27T09:30:23.932Z,96.0
2017-11-27T09:31:25.382Z,96.2
2017-11-27T09:32:26.875Z,96.1
2017-11-27T09:33:28.345Z,96.1
2017-11-27T09:34:29.836Z,96.4
2017-11-27T09:35:31.286Z,96.6
2017-11-27T09:36:32.776Z,96.5
2017-11-27T09:37:34.251Z,96.7
2017-11-27T09:38:35.706Z,96.7
2017-11-27T09:39:37.174Z,96.6
2017-11-27T09:40:38.651Z,96.7
2017-11-27T09:41:40.137Z,96.6
2017-11-27T09:42:41.593Z,96.6
2017-11-27T09:43:43.092Z,96.6
2017-11-27T09:44:44.572Z,96.8
2017-11-27T09:45:46.107Z,96.6
2017-11-27T09:46:47.583Z,96.6
2017-11-27T09:47:49.066Z,96.8
2017-11-27T09:48:50.561Z,96.2
2017-11-27T09:49:52.037Z,96.4
2017-11-27T09:50:53.521Z,96.6
2017-11-27T09:51:55.027Z,96.6
2017-11-27T09:52:56.482Z,96.8
2017-11-27T09:53:57.985Z,96.4
2017-11-27T09:54:59.507Z,96.6
2017-11-27T09:56:00.950Z,96.6
2017-11-27T09:57:02.412Z,96.8
2017-11-27T09:58:03.869Z,96.6
2017-11-27T09:59:05.342Z,96.6
2017-11-27T10:00:06.842Z,96.6
2017-11-27T10:01:08.341Z,96.4
2017-11-27T10:02:10.395Z,96.7
2017-11-27T10:03:11.844Z,96.7
2017-11-27T10:04:13.316Z,97.2
2017-11-27T10:05:14.795Z,97.2
2017-11-27T10:06:16.267Z,96.9
2017-11-27T10:07:17.767Z,97.0
2017-11-27T10:08:19.273Z,97.1
2017-11-27T10:09:20.764Z,97.3
2017-11-27T10:10:22.240Z,96.8
2017-11-27T10:11:23.733Z,97.1
2017-11-27T10:12:25.239Z,97.0
2017-11-27T10:13:26.755Z,96.8
2017-11-27T10:14:28.252Z,97.1
2017-11-27T10:15:29.742Z,97.2
2017-11-27T10:16:31.247Z,96.9
2017-11-27T10:17:32.741Z,97.2
2017-11-27T10:18:34.234Z,97.2
2017-11-27T10:19:35.699Z,97.1
2017-11-27T10:20:37.186Z,97.2
2017-11-27T10:21:38.652Z,97.0
2017-11-27T10:22:40.113Z,96.9
2017-11-27T10:23:41.564Z,97.0
2017-11-27T10:24:43.022Z,97.2
2017-11-27T10:25:44.523Z,97.0
2017-11-27T10:26:46.016Z,97.0
2017-11-27T10:27:47.517Z,96.7
2017-11-27T10:28:48.960Z,96.8
2017-11-27T10:29:50.409Z,97.0
2017-11-27T10:30:51.887Z,97.0
2017-11-27T10:31:53.309Z,97.0
2017-11-27T10:32:54.725Z,97.2
2017-11-27T10:33:56.140Z,96.8
2017-11-27T10:34:57.685Z,96.9
2017-11-27T10:35:59.140Z,97.1
2017-11-27T10:37:00.585Z,97.0
2017-11-27T10:38:02.057Z,96.6
2017-11-27T10:39:03.551Z,97.0
2017-11-27T10:40:05.001Z,96.6
2017-11-27T10:41:06.484Z,96.6
2017-11-27T10:42:07.955Z,96.6
2017-11-27T10:43:09.394Z,96.6
2017-11-27T10:44:10.867Z,96.5
2017-11-27T10:45:12.325Z,96.6
2017-11-27T10:46:14.395Z,96.9
2017-11-27T10:47:15.870Z,96.6
2017-11-27T10:48:17.349Z,97.0
2017-11-27T10:49:18.842Z,96.5
2017-11-27T10:50:20.319Z,96.8
2017-11-27T10:51:21.780Z,96.6
2017-11-27T10:52:23.271Z,96.9
2017-11-27T10:53:24.757Z,96.8
2017-11-27T10:54:26.328Z,96.6
2017-11-27T10:55:27.804Z,96.6
2017-11-27T10:56:29.233Z,96.6
2017-11-27T10:57:30.672Z,96.8
2017-11-27T10:58:32.157Z,96.4
2017-11-27T10:59:33.634Z,96.7
2017-11-27T11:00:35.092Z,96.6
2017-11-27T11:01:36.543Z,96.6
2017-11-27T11:02:37.999Z,96.6
2017-11-27T11:03:39.505Z,97.2
2017-11-27T11:04:40.980Z,96.6
2017-11-27T11:05:42.495Z,96.5
2017-11-27T11:06:43.987Z,96.7
2017-11-27T11:07:45.485Z,96.8
2017-11-27T11:08:46.913Z,96.5
2017-11-27T11:09:48.365Z,96.8
2017-11-27T11:10:49.812Z,96.8
2017-11-27T11:11:51.901Z,97.2
2017-11-27T11:12:53.355Z,97.0
2017-11-27T11:13:54.816Z,97.2
2017-11-27T11:14:56.266Z,97.0
2017-11-27T11:15:57.782Z,97.1
2017-11-27T11:16:59.285Z,97.0
2017-11-27T11:18:00.714Z,97.0
2017-11-27T11:19:02.170Z,96.8
2017-11-27T11:20:03.629Z,96.8
2017-11-27T11:21:05.089Z,97.0
2017-11-27T11:22:06.601Z,96.7
2017-11-27T11:23:08.059Z,97.0
2017-11-27T11:24:09.495Z,96.7
2017-11-27T11:25:10.947Z,96.9
2017-11-27T11:26:12.444Z,97.2
2017-11-27T11:27:13.946Z,97.1
2017-11-27T11:28:15.426Z,96.8
2017-11-27T11:29:16.897Z,96.6
2017-11-27T11:30:18.352Z,96.7
2017-11-27T11:31:19.815Z,96.8
2017-11-27T11:32:21.304Z,97.0
2017-11-27T11:33:22.755Z,96.7
2017-11-27T11:34:24.241Z,97.1
2017-11-27T11:35:25.698Z,97.4
2017-11-27T11:36:27.204Z,97.4
2017-11-27T11:37:28.669Z,97.2
2017-11-27T11:38:30.189Z,97.5
2017-11-27T11:39:31.646Z,97.2
2017-11-27T11:40:33.115Z,97.1
2017-11-27T11:41:34.580Z,97.3
2017-11-27T11:42:36.252Z,97.2
2017-11-27T11:43:38.101Z,97.4
2017-11-27T11:44:39.585Z,97.3
2017-11-27T11:45:41.061Z,97.2
2017-11-27T11:46:42.540Z,97.3
2017-11-27T11:47:45.018Z,97.1
2017-11-27T11:48:46.386Z,97.6
2017-11-27T11:49:47.978Z,97.3
2017-11-27T11:50:51.407Z,97.2
2017-11-27T11:51:52.748Z,97.3
2017-11-27T11:52:54.296Z,97.1
2017-11-27T11:53:55.772Z,97.5
2017-11-27T11:54:57.229Z,96.8
2017-11-27T11:55:58.746Z,97.1
2017-11-27T11:57:00.228Z,97.1
2017-11-27T11:58:01.710Z,97.2
2017-11-27T11:59:03.153Z,97.1
2017-11-27T12:00:04.656Z,97.2
2017-11-27T12:01:06.112Z,97.1
2017-11-27T12:02:07.615Z,97.1
2017-11-27T12:03:09.129Z,97.1
2017-11-27T12:04:10.593Z,97.4
2017-11-27T12:05:12.098Z,97.3
2017-11-27T12:06:13.595Z,97.6
2017-11-27T12:07:15.088Z,97.2
2017-11-27T12:08:16.579Z,96.9
2017-11-27T12:09:18.088Z,97.5
2017-11-27T12:10:19.547Z,97.4
2017-11-27T12:11:21.101Z,97.3
2017-11-27T12:12:22.813Z,97.3
2017-11-27T12:13:24.291Z,97.3
2017-11-27T12:14:25.829Z,97.1
2017-11-27T12:15:27.290Z,97.0
2017-11-27T12:16:28.815Z,96.8
2017-11-27T12:17:30.311Z,96.9
2017-11-27T12:18:31.773Z,97.5
2017-11-27T12:19:33.207Z,97.3
2017-11-27T12:20:34.677Z,97.4
2017-11-27T12:21:36.452Z,97.3
2017-11-27T12:22:37.931Z,97.4
2017-11-27T12:23:39.458Z,97.1
2017-11-27T12:24:40.970Z,97.1
2017-11-27T12:25:42.454Z,97.4
2017-11-27T12:26:44.012Z,97.6
2017-11-27T12:27:45.647Z,97.3
2017-11-27T12:28:47.146Z,97.4
2017-11-27T12:29:48.731Z,97.0
2017-11-27T12:30:50.203Z,97.3
2017-11-27T12:31:51.757Z,97.3
2017-11-27T12:32:53.259Z,97.3
2017-11-27T12:33:54.781Z,97.2
2017-11-27T12:34:56.296Z,97.4
2017-11-27T12:35:57.786Z,97.5
2017-11-27T12:36:59.285Z,96.9
2017-11-27T12:38:00.715Z,97.2
2017-11-27T12:39:02.175Z,97.1
2017-11-27T12:40:03.622Z,97.2
2017-11-27T12:41:05.069Z,97.5
2017-11-27T12:42:06.519Z,97.5
2017-11-27T12:43:08.052Z,97.3
2017-11-27T12:44:09.514Z,97.4
2017-11-27T12:45:11.011Z,97.3
2017-11-27T12:46:12.470Z,97.1
2017-11-27T12:47:13.888Z,97.1
2017-11-27T12:48:15.333Z,97.3
2017-11-27T12:49:16.771Z,97.3
2017-11-27T12:50:18.246Z,97.4
2017-11-27T12:51:19.685Z,97.4
2017-11-27T12:52:21.143Z,97.3
2017-11-27T12:53:23.381Z,97.4
2017-11-27T12:54:25.625Z,97.4
2017-11-27T12:55:27.074Z,97.2
2017-11-27T12:56:28.545Z,97.4
2017-11-27T12:57:30.036Z,97.3
2017-11-27T12:58:31.488Z,97.3
2017-11-27T12:59:35.299Z,97.3
2017-11-27T13:00:36.744Z,97.5
2017-11-27T13:01:38.250Z,97.3
2017-11-27T13:02:39.695Z,97.4
2017-11-27T13:03:41.169Z,97.1
2017-11-27T13:04:42.617Z,97.3
2017-11-27T13:05:44.059Z,97.1
2017-11-27T13:06:45.505Z,97.1
2017-11-27T13:07:46.961Z,97.1
2017-11-27T13:08:48.426Z,97.0
2017-11-27T13:09:49.882Z,97.3
2017-11-27T13:10:51.325Z,97.3
2017-11-27T13:11:52.774Z,97.3
2017-11-27T13:12:54.244Z,97.2
2017-11-27T13:13:55.684Z,97.1
2017-11-27T13:14:57.251Z,97.2
2017-11-27T13:15:58.650Z,97.1
2017-11-27T13:17:00.095Z,97.5
2017-11-27T13:18:01.550Z,97.5
2017-11-27T13:19:03.022Z,97.3
2017-11-27T13:20:04.469Z,97.5
2017-11-27T13:21:05.894Z,97.5
2017-11-27T13:22:07.328Z,97.5
2017-11-27T13:23:08.768Z,97.3
2017-11-27T13:24:10.237Z,97.3
2017-11-27T13:25:12.029Z,97.5
2017-11-27T13:26:14.061Z,97.3
2017-11-27T13:27:15.512Z,97.3
2017-11-27T13:28:16.989Z,96.7
2017-11-27T13:29:18.425Z,97.0
2017-11-27T13:30:19.895Z,97.0
2017-11-27T13:31:21.344Z,97.3
2017-11-27T13:32:22.805Z,97.3
2017-11-27T13:33:24.280Z,97.5
2017-11-27T13:34:25.726Z,97.3
2017-11-27T13:35:27.192Z,97.5
2017-11-27T13:36:28.651Z,97.4
2017-11-27T13:37:30.088Z,97.3